sensor_id;sensor_type;location;lat;lon;timestamp;P1;durP1;ratioP1;P2;durP2;ratioP2
48268;SDS011;34088;52.232;5.196;2022-10-31T00:00:53;10.85;;;6.40;;
48268;SDS011;34088;52.232;5.196;2022-10-31T00:03:19;11.77;;;6.57;;
48268;SDS011;34088;52.232;5.196;2022-10-31T00:05:46;13.30;;;6.88;;
48268;SDS011;34088;52.232;5.196;2022-10-31T00:08:13;13.25;;;6.88;;
48268;SDS011;34088;52.232;5.196;2022-10-31T00:10:39;13.40;;;6.53;;
48268;SDS011;34088;52.232;5.196;2022-10-31T00:13:06;13.27;;;7.35;;
48268;SDS011;34088;52.232;5.196;2022-10-31T00:15:33;12.93;;;7.13;;
48268;SDS011;34088;52.232;5.196;2022-10-31T00:18:00;12.48;;;6.80;;
48268;SDS011;34088;52.232;5.196;2022-10-31T00:20:26;10.13;;;6.20;;
48268;SDS011;34088;52.232;5.196;2022-10-31T00:22:52;14.52;;;6.68;;
48268;SDS011;34088;52.232;5.196;2022-10-31T00:25:19;14.85;;;6.90;;
48268;SDS011;34088;52.232;5.196;2022-10-31T00:27:45;14.85;;;7.00;;
48268;SDS011;34088;52.232;5.196;2022-10-31T00:30:12;12.45;;;6.80;;
48268;SDS011;34088;52.232;5.196;2022-10-31T00:32:38;12.60;;;6.97;;
48268;SDS011;34088;52.232;5.196;2022-10-31T00:35:04;12.50;;;6.90;;
48268;SDS011;34088;52.232;5.196;2022-10-31T00:37:30;12.38;;;6.53;;
48268;SDS011;34088;52.232;5.196;2022-10-31T00:39:56;11.32;;;6.25;;
48268;SDS011;34088;52.232;5.196;2022-10-31T00:42:22;15.23;;;6.53;;
48268;SDS011;34088;52.232;5.196;2022-10-31T00:44:48;12.35;;;6.68;;
48268;SDS011;34088;52.232;5.196;2022-10-31T00:47:14;10.63;;;6.35;;
48268;SDS011;34088;52.232;5.196;2022-10-31T00:49:40;14.95;;;6.90;;
48268;SDS011;34088;52.232;5.196;2022-10-31T00:52:06;15.85;;;6.88;;
48268;SDS011;34088;52.232;5.196;2022-10-31T00:54:32;10.95;;;7.07;;
48268;SDS011;34088;52.232;5.196;2022-10-31T00:56:58;16.13;;;6.82;;
48268;SDS011;34088;52.232;5.196;2022-10-31T00:59:25;13.82;;;8.00;;
48268;SDS011;34088;52.232;5.196;2022-10-31T01:01:51;13.85;;;7.43;;
48268;SDS011;34088;52.232;5.196;2022-10-31T01:04:17;16.60;;;8.88;;
48268;SDS011;34088;52.232;5.196;2022-10-31T01:06:43;17.20;;;9.68;;
48268;SDS011;34088;52.232;5.196;2022-10-31T01:09:09;15.20;;;10.48;;
48268;SDS011;34088;52.232;5.196;2022-10-31T01:11:35;18.27;;;10.25;;
48268;SDS011;34088;52.232;5.196;2022-10-31T01:14:01;18.30;;;9.70;;
48268;SDS011;34088;52.232;5.196;2022-10-31T01:16:27;15.13;;;9.95;;
48268;SDS011;34088;52.232;5.196;2022-10-31T01:18:54;18.15;;;9.05;;
48268;SDS011;34088;52.232;5.196;2022-10-31T01:21:21;17.30;;;8.68;;
48268;SDS011;34088;52.232;5.196;2022-10-31T01:23:49;16.63;;;10.20;;
48268;SDS011;34088;52.232;5.196;2022-10-31T01:26:18;19.15;;;10.38;;
48268;SDS011;34088;52.232;5.196;2022-10-31T01:28:50;16.27;;;9.73;;
48268;SDS011;34088;52.232;5.196;2022-10-31T01:31:18;16.20;;;9.07;;
48268;SDS011;34088;52.232;5.196;2022-10-31T01:33:45;14.20;;;8.60;;
48268;SDS011;34088;52.232;5.196;2022-10-31T01:36:18;13.05;;;8.80;;
48268;SDS011;34088;52.232;5.196;2022-10-31T01:38:51;16.50;;;9.07;;
48268;SDS011;34088;52.232;5.196;2022-10-31T01:41:19;13.70;;;8.55;;
48268;SDS011;34088;52.232;5.196;2022-10-31T01:43:54;13.63;;;8.55;;
48268;SDS011;34088;52.232;5.196;2022-10-31T01:46:22;15.20;;;8.77;;
48268;SDS011;34088;52.232;5.196;2022-10-31T01:48:55;13.55;;;8.25;;
48268;SDS011;34088;52.232;5.196;2022-10-31T01:51:25;12.43;;;8.85;;
48268;SDS011;34088;52.232;5.196;2022-10-31T01:53:54;13.93;;;8.48;;
48268;SDS011;34088;52.232;5.196;2022-10-31T01:56:22;15.27;;;8.25;;
48268;SDS011;34088;52.232;5.196;2022-10-31T01:58:48;15.70;;;9.05;;
48268;SDS011;34088;52.232;5.196;2022-10-31T02:01:15;16.17;;;8.85;;
48268;SDS011;34088;52.232;5.196;2022-10-31T02:03:42;14.02;;;8.60;;
48268;SDS011;34088;52.232;5.196;2022-10-31T02:06:10;16.98;;;8.55;;
48268;SDS011;34088;52.232;5.196;2022-10-31T02:08:43;13.20;;;7.47;;
48268;SDS011;34088;52.232;5.196;2022-10-31T02:11:09;18.42;;;8.95;;
48268;SDS011;34088;52.232;5.196;2022-10-31T02:13:36;15.10;;;8.48;;
48268;SDS011;34088;52.232;5.196;2022-10-31T02:16:02;14.82;;;9.05;;
48268;SDS011;34088;52.232;5.196;2022-10-31T02:18:29;16.17;;;8.80;;
48268;SDS011;34088;52.232;5.196;2022-10-31T02:29:50;13.23;;;9.27;;
48268;SDS011;34088;52.232;5.196;2022-10-31T02:32:33;15.43;;;9.07;;
48268;SDS011;34088;52.232;5.196;2022-10-31T02:38:03;14.80;;;7.85;;
48268;SDS011;34088;52.232;5.196;2022-10-31T02:43:40;17.05;;;8.82;;
48268;SDS011;34088;52.232;5.196;2022-10-31T02:46:23;11.45;;;8.23;;
48268;SDS011;34088;52.232;5.196;2022-10-31T02:49:11;14.10;;;9.00;;
48268;SDS011;34088;52.232;5.196;2022-10-31T02:51:42;12.40;;;8.27;;
48268;SDS011;34088;52.232;5.196;2022-10-31T02:54:19;15.52;;;9.02;;
48268;SDS011;34088;52.232;5.196;2022-10-31T02:56:50;14.10;;;8.65;;
48268;SDS011;34088;52.232;5.196;2022-10-31T02:59:21;15.95;;;8.88;;
48268;SDS011;34088;52.232;5.196;2022-10-31T03:02:04;16.83;;;9.23;;
48268;SDS011;34088;52.232;5.196;2022-10-31T03:07:39;13.13;;;8.55;;
48268;SDS011;34088;52.232;5.196;2022-10-31T03:10:22;11.75;;;8.10;;
48268;SDS011;34088;52.232;5.196;2022-10-31T03:13:02;11.38;;;7.50;;
48268;SDS011;34088;52.232;5.196;2022-10-31T03:15:45;14.88;;;9.45;;
48268;SDS011;34088;52.232;5.196;2022-10-31T03:20:47;10.13;;;7.90;;
48268;SDS011;34088;52.232;5.196;2022-10-31T03:23:20;10.50;;;7.35;;
48268;SDS011;34088;52.232;5.196;2022-10-31T03:25:48;16.88;;;8.38;;
48268;SDS011;34088;52.232;5.196;2022-10-31T03:28:15;16.20;;;8.90;;
48268;SDS011;34088;52.232;5.196;2022-10-31T03:30:43;15.13;;;9.05;;
48268;SDS011;34088;52.232;5.196;2022-10-31T03:33:12;15.82;;;9.63;;
48268;SDS011;34088;52.232;5.196;2022-10-31T03:35:41;12.65;;;8.95;;
48268;SDS011;34088;52.232;5.196;2022-10-31T03:38:09;12.93;;;8.55;;
48268;SDS011;34088;52.232;5.196;2022-10-31T03:40:36;13.65;;;8.80;;
48268;SDS011;34088;52.232;5.196;2022-10-31T03:43:05;13.23;;;8.50;;
48268;SDS011;34088;52.232;5.196;2022-10-31T03:45:33;12.60;;;8.07;;
48268;SDS011;34088;52.232;5.196;2022-10-31T03:48:04;14.07;;;9.23;;
48268;SDS011;34088;52.232;5.196;2022-10-31T03:50:32;13.18;;;8.82;;
48268;SDS011;34088;52.232;5.196;2022-10-31T03:53:26;17.65;;;9.60;;
48268;SDS011;34088;52.232;5.196;2022-10-31T03:55:59;13.73;;;9.25;;
48268;SDS011;34088;52.232;5.196;2022-10-31T03:58:36;15.05;;;10.70;;
48268;SDS011;34088;52.232;5.196;2022-10-31T04:01:05;16.52;;;10.50;;
48268;SDS011;34088;52.232;5.196;2022-10-31T04:03:33;15.10;;;10.57;;
48268;SDS011;34088;52.232;5.196;2022-10-31T04:06:05;17.75;;;10.75;;
48268;SDS011;34088;52.232;5.196;2022-10-31T04:08:36;16.25;;;9.90;;
48268;SDS011;34088;52.232;5.196;2022-10-31T04:11:08;13.93;;;9.95;;
48268;SDS011;34088;52.232;5.196;2022-10-31T04:13:35;15.75;;;9.70;;
48268;SDS011;34088;52.232;5.196;2022-10-31T04:16:03;13.43;;;9.73;;
48268;SDS011;34088;52.232;5.196;2022-10-31T04:18:29;14.15;;;10.13;;
48268;SDS011;34088;52.232;5.196;2022-10-31T04:21:03;14.77;;;9.77;;
48268;SDS011;34088;52.232;5.196;2022-10-31T04:23:30;16.27;;;10.60;;
48268;SDS011;34088;52.232;5.196;2022-10-31T04:25:56;12.52;;;9.05;;
48268;SDS011;34088;52.232;5.196;2022-10-31T04:28:22;15.73;;;11.35;;
48268;SDS011;34088;52.232;5.196;2022-10-31T04:30:49;15.52;;;10.98;;
48268;SDS011;34088;52.232;5.196;2022-10-31T04:33:15;14.80;;;10.50;;
48268;SDS011;34088;52.232;5.196;2022-10-31T04:35:41;16.15;;;11.00;;
48268;SDS011;34088;52.232;5.196;2022-10-31T04:38:07;14.68;;;10.32;;
48268;SDS011;34088;52.232;5.196;2022-10-31T04:40:33;14.90;;;10.30;;
48268;SDS011;34088;52.232;5.196;2022-10-31T04:42:59;14.02;;;9.75;;
48268;SDS011;34088;52.232;5.196;2022-10-31T04:45:25;14.48;;;10.15;;
48268;SDS011;34088;52.232;5.196;2022-10-31T04:47:51;14.40;;;10.40;;
48268;SDS011;34088;52.232;5.196;2022-10-31T04:50:18;13.40;;;9.55;;
48268;SDS011;34088;52.232;5.196;2022-10-31T04:52:44;15.75;;;10.52;;
48268;SDS011;34088;52.232;5.196;2022-10-31T04:55:11;14.55;;;10.18;;
48268;SDS011;34088;52.232;5.196;2022-10-31T04:57:42;14.45;;;9.48;;
48268;SDS011;34088;52.232;5.196;2022-10-31T05:00:09;17.33;;;11.13;;
48268;SDS011;34088;52.232;5.196;2022-10-31T05:02:45;13.82;;;10.30;;
48268;SDS011;34088;52.232;5.196;2022-10-31T05:05:16;12.43;;;8.95;;
48268;SDS011;34088;52.232;5.196;2022-10-31T05:07:43;14.85;;;9.50;;
48268;SDS011;34088;52.232;5.196;2022-10-31T05:10:11;20.33;;;10.70;;
48268;SDS011;34088;52.232;5.196;2022-10-31T05:12:44;13.48;;;10.27;;
48268;SDS011;34088;52.232;5.196;2022-10-31T05:15:11;14.27;;;10.65;;
48268;SDS011;34088;52.232;5.196;2022-10-31T05:17:38;17.10;;;9.90;;
48268;SDS011;34088;52.232;5.196;2022-10-31T05:20:04;17.00;;;10.25;;
48268;SDS011;34088;52.232;5.196;2022-10-31T05:22:30;19.35;;;10.63;;
48268;SDS011;34088;52.232;5.196;2022-10-31T05:24:56;15.45;;;10.27;;
48268;SDS011;34088;52.232;5.196;2022-10-31T05:27:22;15.13;;;9.60;;
48268;SDS011;34088;52.232;5.196;2022-10-31T05:29:48;12.05;;;8.38;;
48268;SDS011;34088;52.232;5.196;2022-10-31T05:32:14;13.52;;;9.10;;
48268;SDS011;34088;52.232;5.196;2022-10-31T05:34:41;14.93;;;9.93;;
48268;SDS011;34088;52.232;5.196;2022-10-31T05:37:07;16.02;;;10.30;;
48268;SDS011;34088;52.232;5.196;2022-10-31T05:39:33;15.85;;;9.85;;
48268;SDS011;34088;52.232;5.196;2022-10-31T05:41:59;13.48;;;9.80;;
48268;SDS011;34088;52.232;5.196;2022-10-31T05:44:25;16.25;;;11.30;;
48268;SDS011;34088;52.232;5.196;2022-10-31T05:46:51;17.88;;;10.90;;
48268;SDS011;34088;52.232;5.196;2022-10-31T05:49:17;16.70;;;11.30;;
48268;SDS011;34088;52.232;5.196;2022-10-31T05:51:43;17.85;;;12.20;;
48268;SDS011;34088;52.232;5.196;2022-10-31T05:54:09;19.75;;;13.02;;
48268;SDS011;34088;52.232;5.196;2022-10-31T05:56:35;20.42;;;13.02;;
48268;SDS011;34088;52.232;5.196;2022-10-31T05:59:01;19.88;;;12.27;;
48268;SDS011;34088;52.232;5.196;2022-10-31T06:01:27;21.80;;;13.40;;
48268;SDS011;34088;52.232;5.196;2022-10-31T06:03:53;18.75;;;12.52;;
48268;SDS011;34088;52.232;5.196;2022-10-31T06:06:19;18.33;;;13.05;;
48268;SDS011;34088;52.232;5.196;2022-10-31T06:08:45;20.75;;;13.15;;
48268;SDS011;34088;52.232;5.196;2022-10-31T06:11:11;20.80;;;13.65;;
48268;SDS011;34088;52.232;5.196;2022-10-31T06:13:37;21.92;;;15.13;;
48268;SDS011;34088;52.232;5.196;2022-10-31T06:16:04;21.45;;;15.57;;
48268;SDS011;34088;52.232;5.196;2022-10-31T06:18:30;24.77;;;19.00;;
48268;SDS011;34088;52.232;5.196;2022-10-31T06:20:56;27.00;;;19.35;;
48268;SDS011;34088;52.232;5.196;2022-10-31T06:23:22;24.85;;;16.25;;
48268;SDS011;34088;52.232;5.196;2022-10-31T06:25:48;22.88;;;13.35;;
48268;SDS011;34088;52.232;5.196;2022-10-31T06:28:15;19.38;;;13.27;;
48268;SDS011;34088;52.232;5.196;2022-10-31T06:30:41;22.23;;;13.40;;
48268;SDS011;34088;52.232;5.196;2022-10-31T06:33:07;21.55;;;14.73;;
48268;SDS011;34088;52.232;5.196;2022-10-31T06:35:33;19.50;;;14.27;;
48268;SDS011;34088;52.232;5.196;2022-10-31T06:37:59;18.95;;;13.88;;
48268;SDS011;34088;52.232;5.196;2022-10-31T06:40:25;24.10;;;14.40;;
48268;SDS011;34088;52.232;5.196;2022-10-31T06:43:00;28.00;;;15.60;;
48268;SDS011;34088;52.232;5.196;2022-10-31T06:45:27;21.20;;;15.13;;
48268;SDS011;34088;52.232;5.196;2022-10-31T06:47:53;20.48;;;14.40;;
48268;SDS011;34088;52.232;5.196;2022-10-31T07:02:30;21.73;;;14.70;;
48268;SDS011;34088;52.232;5.196;2022-10-31T07:04:55;24.27;;;15.75;;
48268;SDS011;34088;52.232;5.196;2022-10-31T07:07:21;19.48;;;13.88;;
48268;SDS011;34088;52.232;5.196;2022-10-31T07:09:47;25.85;;;15.75;;
48268;SDS011;34088;52.232;5.196;2022-10-31T07:12:12;26.38;;;16.38;;
48268;SDS011;34088;52.232;5.196;2022-10-31T07:14:38;25.63;;;15.80;;
48268;SDS011;34088;52.232;5.196;2022-10-31T07:17:04;24.58;;;16.70;;
48268;SDS011;34088;52.232;5.196;2022-10-31T07:19:29;24.33;;;17.02;;
48268;SDS011;34088;52.232;5.196;2022-10-31T07:21:56;25.83;;;16.35;;
48268;SDS011;34088;52.232;5.196;2022-10-31T07:24:22;24.35;;;14.85;;
48268;SDS011;34088;52.232;5.196;2022-10-31T07:26:47;26.65;;;17.25;;
48268;SDS011;34088;52.232;5.196;2022-10-31T07:29:14;27.83;;;18.27;;
48268;SDS011;34088;52.232;5.196;2022-10-31T07:31:39;27.48;;;17.42;;
48268;SDS011;34088;52.232;5.196;2022-10-31T07:34:05;23.33;;;16.42;;
48268;SDS011;34088;52.232;5.196;2022-10-31T07:36:31;24.75;;;16.98;;
48268;SDS011;34088;52.232;5.196;2022-10-31T07:38:56;24.58;;;16.48;;
48268;SDS011;34088;52.232;5.196;2022-10-31T07:41:23;26.35;;;18.08;;
48268;SDS011;34088;52.232;5.196;2022-10-31T07:43:49;28.08;;;17.05;;
48268;SDS011;34088;52.232;5.196;2022-10-31T07:46:15;23.88;;;16.50;;
48268;SDS011;34088;52.232;5.196;2022-10-31T07:48:41;22.60;;;17.35;;
48268;SDS011;34088;52.232;5.196;2022-10-31T07:51:06;29.10;;;17.75;;
48268;SDS011;34088;52.232;5.196;2022-10-31T07:53:32;24.42;;;17.08;;
48268;SDS011;34088;52.232;5.196;2022-10-31T07:55:58;23.75;;;16.50;;
48268;SDS011;34088;52.232;5.196;2022-10-31T07:58:24;24.85;;;16.98;;
48268;SDS011;34088;52.232;5.196;2022-10-31T08:00:50;23.67;;;16.20;;
48268;SDS011;34088;52.232;5.196;2022-10-31T08:03:17;39.35;;;25.52;;
48268;SDS011;34088;52.232;5.196;2022-10-31T08:05:43;24.75;;;16.58;;
48268;SDS011;34088;52.232;5.196;2022-10-31T08:08:13;27.63;;;18.65;;
48268;SDS011;34088;52.232;5.196;2022-10-31T08:10:39;29.23;;;19.73;;
48268;SDS011;34088;52.232;5.196;2022-10-31T08:13:06;27.13;;;18.63;;
48268;SDS011;34088;52.232;5.196;2022-10-31T08:15:34;29.00;;;20.27;;
48268;SDS011;34088;52.232;5.196;2022-10-31T08:18:03;29.63;;;20.02;;
48268;SDS011;34088;52.232;5.196;2022-10-31T08:20:29;33.25;;;21.55;;
48268;SDS011;34088;52.232;5.196;2022-10-31T08:22:59;32.40;;;22.77;;
48268;SDS011;34088;52.232;5.196;2022-10-31T08:25:26;33.50;;;23.75;;
48268;SDS011;34088;52.232;5.196;2022-10-31T08:27:54;37.22;;;24.13;;
48268;SDS011;34088;52.232;5.196;2022-10-31T08:30:21;37.10;;;24.88;;
48268;SDS011;34088;52.232;5.196;2022-10-31T08:33:09;32.35;;;22.08;;
48268;SDS011;34088;52.232;5.196;2022-10-31T08:35:40;34.83;;;22.98;;
48268;SDS011;34088;52.232;5.196;2022-10-31T08:38:07;29.30;;;21.58;;
48268;SDS011;34088;52.232;5.196;2022-10-31T08:40:34;34.08;;;22.70;;
48268;SDS011;34088;52.232;5.196;2022-10-31T08:43:05;30.02;;;20.98;;
48268;SDS011;34088;52.232;5.196;2022-10-31T08:45:41;30.02;;;20.42;;
48268;SDS011;34088;52.232;5.196;2022-10-31T08:48:12;31.05;;;21.52;;
48268;SDS011;34088;52.232;5.196;2022-10-31T08:50:39;36.97;;;22.83;;
48268;SDS011;34088;52.232;5.196;2022-10-31T08:53:07;33.15;;;21.73;;
48268;SDS011;34088;52.232;5.196;2022-10-31T08:55:43;32.28;;;21.45;;
48268;SDS011;34088;52.232;5.196;2022-10-31T08:58:11;34.13;;;21.73;;
48268;SDS011;34088;52.232;5.196;2022-10-31T09:00:38;31.00;;;21.45;;
48268;SDS011;34088;52.232;5.196;2022-10-31T09:03:06;33.78;;;23.40;;
48268;SDS011;34088;52.232;5.196;2022-10-31T09:05:37;34.00;;;23.50;;
48268;SDS011;34088;52.232;5.196;2022-10-31T09:08:04;38.92;;;24.33;;
48268;SDS011;34088;52.232;5.196;2022-10-31T09:10:31;41.65;;;23.55;;
48268;SDS011;34088;52.232;5.196;2022-10-31T09:12:59;38.05;;;25.67;;
48268;SDS011;34088;52.232;5.196;2022-10-31T09:18:13;46.15;;;27.67;;
48268;SDS011;34088;52.232;5.196;2022-10-31T09:20:41;39.95;;;26.73;;
48268;SDS011;34088;52.232;5.196;2022-10-31T09:23:12;42.28;;;25.23;;
48268;SDS011;34088;52.232;5.196;2022-10-31T09:25:42;44.03;;;26.60;;
48268;SDS011;34088;52.232;5.196;2022-10-31T09:28:10;42.88;;;27.17;;
48268;SDS011;34088;52.232;5.196;2022-10-31T09:30:37;41.00;;;25.63;;
48268;SDS011;34088;52.232;5.196;2022-10-31T09:33:04;42.33;;;26.75;;
48268;SDS011;34088;52.232;5.196;2022-10-31T09:35:32;45.95;;;28.25;;
48268;SDS011;34088;52.232;5.196;2022-10-31T09:37:59;41.90;;;26.85;;
48268;SDS011;34088;52.232;5.196;2022-10-31T09:40:33;39.10;;;25.25;;
48268;SDS011;34088;52.232;5.196;2022-10-31T09:51:28;42.13;;;25.58;;
48268;SDS011;34088;52.232;5.196;2022-10-31T09:53:58;43.85;;;26.75;;
48268;SDS011;34088;52.232;5.196;2022-10-31T09:56:34;39.05;;;27.05;;
48268;SDS011;34088;52.232;5.196;2022-10-31T09:59:02;43.05;;;26.98;;
48268;SDS011;34088;52.232;5.196;2022-10-31T10:06:55;45.55;;;27.83;;
48268;SDS011;34088;52.232;5.196;2022-10-31T10:09:22;42.33;;;26.50;;
48268;SDS011;34088;52.232;5.196;2022-10-31T10:17:50;42.03;;;24.80;;
48268;SDS011;34088;52.232;5.196;2022-10-31T10:20:43;34.40;;;22.95;;
48268;SDS011;34088;52.232;5.196;2022-10-31T10:26:01;32.40;;;21.15;;
48268;SDS011;34088;52.232;5.196;2022-10-31T10:28:38;33.75;;;20.63;;
48268;SDS011;34088;52.232;5.196;2022-10-31T10:31:08;26.95;;;19.38;;
48268;SDS011;34088;52.232;5.196;2022-10-31T10:36:22;26.20;;;16.95;;
48268;SDS011;34088;52.232;5.196;2022-10-31T10:39:00;24.98;;;15.73;;
48268;SDS011;34088;52.232;5.196;2022-10-31T10:41:43;23.25;;;14.93;;
48268;SDS011;34088;52.232;5.196;2022-10-31T10:44:11;19.90;;;13.93;;
48268;SDS011;34088;52.232;5.196;2022-10-31T10:46:41;25.10;;;13.98;;
48268;SDS011;34088;52.232;5.196;2022-10-31T10:55:14;18.88;;;13.30;;
48268;SDS011;34088;52.232;5.196;2022-10-31T10:58:03;18.25;;;12.95;;
48268;SDS011;34088;52.232;5.196;2022-10-31T11:00:34;23.23;;;12.48;;
48268;SDS011;34088;52.232;5.196;2022-10-31T11:03:01;22.30;;;13.10;;
48268;SDS011;34088;52.232;5.196;2022-10-31T11:05:46;22.05;;;14.10;;
48268;SDS011;34088;52.232;5.196;2022-10-31T11:10:59;20.73;;;14.25;;
48268;SDS011;34088;52.232;5.196;2022-10-31T11:13:34;21.73;;;15.13;;
48268;SDS011;34088;52.232;5.196;2022-10-31T11:18:32;27.25;;;17.13;;
48268;SDS011;34088;52.232;5.196;2022-10-31T11:21:02;27.58;;;16.30;;
48268;SDS011;34088;52.232;5.196;2022-10-31T11:23:30;20.98;;;15.77;;
48268;SDS011;34088;52.232;5.196;2022-10-31T11:26:04;30.42;;;17.35;;
48268;SDS011;34088;52.232;5.196;2022-10-31T11:28:31;27.30;;;16.85;;
48268;SDS011;34088;52.232;5.196;2022-10-31T11:31:00;25.35;;;17.50;;
48268;SDS011;34088;52.232;5.196;2022-10-31T11:33:35;23.38;;;17.33;;
48268;SDS011;34088;52.232;5.196;2022-10-31T11:36:20;25.20;;;17.63;;
48268;SDS011;34088;52.232;5.196;2022-10-31T11:38:51;31.60;;;19.02;;
48268;SDS011;34088;52.232;5.196;2022-10-31T11:41:18;29.10;;;18.85;;
48268;SDS011;34088;52.232;5.196;2022-10-31T11:43:53;30.17;;;19.50;;
48268;SDS011;34088;52.232;5.196;2022-10-31T11:46:23;27.17;;;18.48;;
48268;SDS011;34088;52.232;5.196;2022-10-31T11:48:54;28.25;;;18.98;;
48268;SDS011;34088;52.232;5.196;2022-10-31T11:51:29;28.73;;;18.00;;
48268;SDS011;34088;52.232;5.196;2022-10-31T11:53:59;27.60;;;18.33;;
48268;SDS011;34088;52.232;5.196;2022-10-31T11:56:36;30.05;;;18.00;;
48268;SDS011;34088;52.232;5.196;2022-10-31T11:59:15;30.98;;;18.10;;
48268;SDS011;34088;52.232;5.196;2022-10-31T12:01:47;29.15;;;17.77;;
48268;SDS011;34088;52.232;5.196;2022-10-31T12:04:14;29.67;;;19.10;;
48268;SDS011;34088;52.232;5.196;2022-10-31T12:06:42;31.10;;;19.50;;
48268;SDS011;34088;52.232;5.196;2022-10-31T12:09:16;31.45;;;19.27;;
48268;SDS011;34088;52.232;5.196;2022-10-31T12:14:30;30.35;;;19.77;;
48268;SDS011;34088;52.232;5.196;2022-10-31T12:17:23;30.92;;;19.95;;
48268;SDS011;34088;52.232;5.196;2022-10-31T12:23:15;37.65;;;21.58;;
48268;SDS011;34088;52.232;5.196;2022-10-31T12:25:55;35.75;;;21.67;;
48268;SDS011;34088;52.232;5.196;2022-10-31T12:44:56;46.72;;;25.85;;
48268;SDS011;34088;52.232;5.196;2022-10-31T12:47:47;47.28;;;26.35;;
48268;SDS011;34088;52.232;5.196;2022-10-31T12:53:15;45.58;;;25.92;;
48268;SDS011;34088;52.232;5.196;2022-10-31T12:58:47;40.20;;;23.50;;
48268;SDS011;34088;52.232;5.196;2022-10-31T13:03:58;46.05;;;25.58;;
48268;SDS011;34088;52.232;5.196;2022-10-31T13:06:37;46.30;;;25.73;;
48268;SDS011;34088;52.232;5.196;2022-10-31T13:09:10;48.40;;;25.85;;
48268;SDS011;34088;52.232;5.196;2022-10-31T13:11:40;47.28;;;26.70;;
48268;SDS011;34088;52.232;5.196;2022-10-31T13:16:51;44.50;;;25.85;;
48268;SDS011;34088;52.232;5.196;2022-10-31T13:19:41;48.35;;;27.33;;
48268;SDS011;34088;52.232;5.196;2022-10-31T13:22:08;47.38;;;24.98;;
48268;SDS011;34088;52.232;5.196;2022-10-31T13:24:47;49.05;;;25.63;;
48268;SDS011;34088;52.232;5.196;2022-10-31T13:27:23;50.40;;;27.05;;
48268;SDS011;34088;52.232;5.196;2022-10-31T13:30:06;41.38;;;24.65;;
48268;SDS011;34088;52.232;5.196;2022-10-31T13:35:26;41.97;;;23.95;;
48268;SDS011;34088;52.232;5.196;2022-10-31T13:38:06;47.45;;;23.90;;
48268;SDS011;34088;52.232;5.196;2022-10-31T13:45:50;40.88;;;22.85;;
48268;SDS011;34088;52.232;5.196;2022-10-31T13:51:03;37.97;;;21.60;;
48268;SDS011;34088;52.232;5.196;2022-10-31T13:56:37;42.67;;;23.20;;
48268;SDS011;34088;52.232;5.196;2022-10-31T14:01:34;42.28;;;24.35;;
48268;SDS011;34088;52.232;5.196;2022-10-31T14:04:05;45.05;;;24.40;;
48268;SDS011;34088;52.232;5.196;2022-10-31T14:06:52;46.72;;;24.92;;
48268;SDS011;34088;52.232;5.196;2022-10-31T14:09:24;45.05;;;25.55;;
48268;SDS011;34088;52.232;5.196;2022-10-31T14:11:57;46.63;;;25.20;;
48268;SDS011;34088;52.232;5.196;2022-10-31T14:14:29;48.53;;;26.25;;
48268;SDS011;34088;52.232;5.196;2022-10-31T14:16:58;50.40;;;27.58;;
48268;SDS011;34088;52.232;5.196;2022-10-31T14:19:25;46.97;;;25.70;;
48268;SDS011;34088;52.232;5.196;2022-10-31T14:21:52;49.25;;;25.50;;
48268;SDS011;34088;52.232;5.196;2022-10-31T14:26:54;43.67;;;26.80;;
48268;SDS011;34088;52.232;5.196;2022-10-31T14:29:23;47.75;;;25.98;;
48268;SDS011;34088;52.232;5.196;2022-10-31T14:31:57;45.15;;;25.45;;
48268;SDS011;34088;52.232;5.196;2022-10-31T14:34:58;46.15;;;25.65;;
48268;SDS011;34088;52.232;5.196;2022-10-31T14:37:37;43.55;;;24.23;;
48268;SDS011;34088;52.232;5.196;2022-10-31T14:42:54;43.85;;;24.17;;
48268;SDS011;34088;52.232;5.196;2022-10-31T14:45:40;46.35;;;24.92;;
48268;SDS011;34088;52.232;5.196;2022-10-31T14:51:22;45.08;;;24.20;;
48268;SDS011;34088;52.232;5.196;2022-10-31T14:53:52;44.08;;;23.88;;
48268;SDS011;34088;52.232;5.196;2022-10-31T14:56:26;43.95;;;24.85;;
48268;SDS011;34088;52.232;5.196;2022-10-31T14:58:58;42.90;;;24.50;;
48268;SDS011;34088;52.232;5.196;2022-10-31T15:01:29;46.72;;;27.52;;
48268;SDS011;34088;52.232;5.196;2022-10-31T15:04:30;45.75;;;24.63;;
48268;SDS011;34088;52.232;5.196;2022-10-31T15:09:59;43.90;;;23.13;;
48268;SDS011;34088;52.232;5.196;2022-10-31T15:12:28;37.58;;;22.75;;
48268;SDS011;34088;52.232;5.196;2022-10-31T15:14:55;46.38;;;23.70;;
48268;SDS011;34088;52.232;5.196;2022-10-31T15:17:23;48.00;;;22.63;;
48268;SDS011;34088;52.232;5.196;2022-10-31T15:19:51;42.55;;;23.48;;
48268;SDS011;34088;52.232;5.196;2022-10-31T15:22:17;43.75;;;23.35;;
48268;SDS011;34088;52.232;5.196;2022-10-31T15:24:45;47.28;;;26.42;;
48268;SDS011;34088;52.232;5.196;2022-10-31T15:27:13;46.15;;;25.90;;
48268;SDS011;34088;52.232;5.196;2022-10-31T15:29:47;44.45;;;24.23;;
48268;SDS011;34088;52.232;5.196;2022-10-31T15:32:22;48.70;;;25.58;;
48268;SDS011;34088;52.232;5.196;2022-10-31T15:34:49;45.60;;;23.75;;
48268;SDS011;34088;52.232;5.196;2022-10-31T15:37:17;38.58;;;23.15;;
48268;SDS011;34088;52.232;5.196;2022-10-31T15:39:45;46.72;;;25.75;;
48268;SDS011;34088;52.232;5.196;2022-10-31T15:42:24;46.08;;;22.75;;
48268;SDS011;34088;52.232;5.196;2022-10-31T15:45:16;48.40;;;24.85;;
48268;SDS011;34088;52.232;5.196;2022-10-31T15:47:53;44.90;;;23.67;;
48268;SDS011;34088;52.232;5.196;2022-10-31T15:50:29;46.42;;;24.58;;
48268;SDS011;34088;52.232;5.196;2022-10-31T15:53:05;46.28;;;25.45;;
48268;SDS011;34088;52.232;5.196;2022-10-31T15:55:45;44.20;;;24.90;;
48268;SDS011;34088;52.232;5.196;2022-10-31T15:58:19;45.20;;;24.55;;
48268;SDS011;34088;52.232;5.196;2022-10-31T16:00:45;43.08;;;23.67;;
48268;SDS011;34088;52.232;5.196;2022-10-31T16:03:30;45.40;;;24.98;;
48268;SDS011;34088;52.232;5.196;2022-10-31T16:06:00;45.97;;;24.85;;
48268;SDS011;34088;52.232;5.196;2022-10-31T16:10:55;46.53;;;24.55;;
48268;SDS011;34088;52.232;5.196;2022-10-31T16:13:23;50.58;;;25.73;;
48268;SDS011;34088;52.232;5.196;2022-10-31T16:15:55;50.33;;;27.05;;
48268;SDS011;34088;52.232;5.196;2022-10-31T16:18:25;47.80;;;25.92;;
48268;SDS011;34088;52.232;5.196;2022-10-31T16:20:53;48.97;;;25.45;;
48268;SDS011;34088;52.232;5.196;2022-10-31T16:23:20;49.03;;;26.65;;
48268;SDS011;34088;52.232;5.196;2022-10-31T16:25:49;44.60;;;26.70;;
48268;SDS011;34088;52.232;5.196;2022-10-31T16:28:19;45.97;;;26.27;;
48268;SDS011;34088;52.232;5.196;2022-10-31T16:30:50;48.92;;;25.55;;
48268;SDS011;34088;52.232;5.196;2022-10-31T16:33:28;47.63;;;24.90;;
48268;SDS011;34088;52.232;5.196;2022-10-31T16:36:28;46.20;;;25.25;;
48268;SDS011;34088;52.232;5.196;2022-10-31T16:38:57;45.63;;;24.38;;
48268;SDS011;34088;52.232;5.196;2022-10-31T16:41:24;43.10;;;24.45;;
48268;SDS011;34088;52.232;5.196;2022-10-31T16:43:51;46.20;;;25.13;;
48268;SDS011;34088;52.232;5.196;2022-10-31T16:46:19;47.17;;;23.83;;
48268;SDS011;34088;52.232;5.196;2022-10-31T16:48:48;44.00;;;23.65;;
48268;SDS011;34088;52.232;5.196;2022-10-31T16:51:14;45.67;;;23.85;;
48268;SDS011;34088;52.232;5.196;2022-10-31T16:53:40;43.15;;;23.88;;
48268;SDS011;34088;52.232;5.196;2022-10-31T16:56:10;48.55;;;25.13;;
48268;SDS011;34088;52.232;5.196;2022-10-31T16:58:42;51.45;;;25.35;;